Time;durP1;ratioP1;P1;durP2;ratioP2;P2;SDS_P1;SDS_P2;PMS_P1;PMS_P2;Temp;Humidity;BMP_temperature;BMP_pressure;BME280_temperature;BME280_humidity;BME280_pressure;Samples;Min_cycle;Max_cycle;Signal;HPM_P1;HPM_P2
2022/07/27 00:03:13;;;;;;;4.78;2.60;;;16.50;99.90;;;;;;4799178;29;20167;-61
2022/07/27 00:05:38;;;;;;;6.20;2.80;;;16.50;99.90;;;;;;4803887;29;20138;-61
2022/07/27 00:08:05;;;;;;;3.42;2.08;;;16.40;99.90;;;;;;4840985;29;20132;-61
2022/07/27 00:10:33;;;;;;;8.23;2.33;;;16.30;99.90;;;;;;4986618;28;20108;-61
2022/07/27 00:12:59;;;;;;;4.22;2.53;;;16.30;99.90;;;;;;5032183;28;20045;-61
2022/07/27 00:15:26;;;;;;;4.32;2.20;;;16.20;99.90;;;;;;5033623;28;20053;-61
2022/07/27 00:17:55;;;;;;;4.15;2.20;;;16.20;99.90;;;;;;5031453;28;20844;-62
2022/07/27 00:20:22;;;;;;;5.75;2.58;;;16.20;99.90;;;;;;5026714;28;20036;-62
2022/07/27 00:22:53;;;;;;;10.35;2.55;;;16.20;99.90;;;;;;5033215;28;20073;-61
2022/07/27 00:25:22;;;;;;;4.85;2.40;;;16.20;99.90;;;;;;5032715;28;20042;-62
2022/07/27 00:27:48;;;;;;;5.20;2.65;;;16.20;99.90;;;;;;5032939;28;20045;-62
2022/07/27 00:30:15;;;;;;;4.88;2.58;;;16.10;99.90;;;;;;5032621;28;20049;-62
2022/07/27 00:32:42;;;;;;;5.50;2.50;;;16.10;99.90;;;;;;5033122;28;20418;-61
2022/07/27 00:35:10;;;;;;;3.13;1.98;;;16.00;99.90;;;;;;5024361;28;20045;-61
2022/07/27 00:37:37;;;;;;;3.78;2.38;;;16.00;99.90;;;;;;5032826;28;20098;-62
2022/07/27 00:40:05;;;;;;;5.55;2.80;;;16.00;99.90;;;;;;5032462;28;20087;-62
2022/07/27 00:42:32;;;;;;;5.32;2.40;;;16.00;99.90;;;;;;5032861;28;20464;-61
2022/07/27 00:45:01;;;;;;;3.67;2.65;;;16.00;99.90;;;;;;5028701;28;20049;-61
2022/07/27 00:47:28;;;;;;;;;;;16.00;99.90;;;;;;5033180;28;20045;-61
2022/07/27 00:49:55;;;;;;;3.42;2.38;;;15.90;99.90;;;;;;5032219;28;19921;-62
2022/07/27 00:52:22;;;;;;;3.72;2.30;;;15.90;99.90;;;;;;5031711;28;20049;-61
2022/07/27 00:54:49;;;;;;;;;;;15.90;99.90;;;;;;5031905;28;20442;-61
2022/07/27 00:57:16;;;;;;;3.60;2.22;;;15.90;99.90;;;;;;5032648;28;20344;-61
2022/07/27 00:59:43;;;;;;;2.90;2.25;;;15.90;99.90;;;;;;5032373;28;20049;-61
2022/07/27 01:02:10;;;;;;;6.60;2.28;;;15.80;99.90;;;;;;5030943;28;20041;-61
2022/07/27 01:04:42;;;;;;;4.80;2.50;;;15.80;99.90;;;;;;5028859;28;20075;-62
2022/07/27 01:07:13;;;;;;;5.25;2.45;;;15.80;99.90;;;;;;5032302;28;20132;-62
2022/07/27 01:09:58;;;;;;;3.03;2.38;;;15.80;99.90;;;;;;5032263;28;20517;-62
2022/07/27 01:12:28;;;;;;;5.55;2.67;;;15.80;99.90;;;;;;5026715;28;20045;-62
2022/07/27 01:14:56;;;;;;;4.43;2.42;;;15.80;99.90;;;;;;5032025;28;20057;-62
2022/07/27 01:17:25;;;;;;;3.38;2.47;;;15.60;99.90;;;;;;5032236;28;20091;-61
2022/07/27 01:19:52;;;;;;;5.85;2.47;;;15.70;99.90;;;;;;5029594;28;20045;-62
2022/07/27 01:22:19;;;;;;;5.85;2.92;;;15.70;99.90;;;;;;5026001;28;20068;-62
2022/07/27 01:24:48;;;;;;;7.82;2.55;;;15.70;99.90;;;;;;5031848;28;20033;-62
2022/07/27 01:27:15;;;;;;;2.55;2.13;;;15.70;99.90;;;;;;5030959;28;20048;-61
2022/07/27 01:29:42;;;;;;;4.90;2.80;;;15.70;99.90;;;;;;5031295;28;20056;-62
2022/07/27 01:32:09;;;;;;;2.72;2.10;;;15.60;99.90;;;;;;5023628;28;20045;-61
2022/07/27 01:34:36;;;;;;;3.47;2.45;;;15.60;99.90;;;;;;5031768;28;20056;-62
2022/07/27 01:37:04;;;;;;;3.28;2.58;;;15.60;99.90;;;;;;5031869;28;20517;-62
2022/07/27 01:39:31;;;;;;;4.70;2.55;;;15.60;99.90;;;;;;5025694;28;20044;-62
2022/07/27 01:41:59;;;;;;;3.08;2.50;;;15.60;99.90;;;;;;5031110;28;20529;-62
2022/07/27 01:44:26;;;;;;;6.22;2.72;;;15.60;99.90;;;;;;5031809;28;20457;-62
2022/07/27 01:46:53;;;;;;;5.78;2.40;;;15.70;99.90;;;;;;5031607;28;20548;-62
2022/07/27 01:49:20;;;;;;;6.60;2.78;;;15.70;99.90;;;;;;5027790;28;20060;-62
2022/07/27 01:51:47;;;;;;;4.38;2.90;;;15.70;99.90;;;;;;5031217;28;20136;-62
2022/07/27 01:54:14;;;;;;;3.67;2.50;;;15.70;99.90;;;;;;5031751;28;20042;-62
2022/07/27 01:56:40;;;;;;;2.83;2.50;;;15.70;99.90;;;;;;5029028;28;20056;-62
2022/07/27 01:59:07;;;;;;;3.05;2.03;;;15.70;99.90;;;;;;5031451;28;20406;-62
2022/07/27 02:01:42;;;;;;;3.05;2.63;;;15.70;99.90;;;;;;5031182;28;20045;-61
2022/07/27 02:04:09;;;;;;;;;;;15.70;99.90;;;;;;5031249;28;20482;-62
2022/07/27 02:06:36;;;;;;;5.82;2.75;;;15.70;99.90;;;;;;5031089;28;19924;-61
2022/07/27 02:09:03;;;;;;;9.88;2.55;;;15.60;99.90;;;;;;5031471;28;20050;-62
2022/07/27 02:14:15;;;;;;;4.30;2.30;;;15.70;99.90;;;;;;5025911;28;20033;-62
2022/07/27 02:16:42;;;;;;;5.43;2.70;;;15.70;99.90;;;;;;5031317;28;20049;-62
2022/07/27 02:19:09;;;;;;;4.18;2.38;;;15.70;99.90;;;;;;5031344;28;20037;-62
2022/07/27 02:21:37;;;;;;;3.92;2.55;;;15.80;99.90;;;;;;5029176;28;20087;-62
2022/07/27 02:24:04;;;;;;;3.70;2.83;;;15.90;99.90;;;;;;5031258;28;20056;-62
2022/07/27 02:26:30;;;;;;;4.20;2.25;;;15.90;99.90;;;;;;5031261;28;20054;-62
2022/07/27 02:28:57;;;;;;;2.80;2.33;;;15.90;99.90;;;;;;5025738;28;20415;-62
2022/07/27 02:31:24;;;;;;;3.83;2.67;;;15.90;99.90;;;;;;5030807;28;20049;-62
2022/07/27 02:33:52;;;;;;;3.13;2.20;;;15.90;99.90;;;;;;5031035;28;20049;-62
2022/07/27 02:36:19;;;;;;;3.60;2.53;;;15.90;99.90;;;;;;5031314;28;20067;-62
2022/07/27 02:38:46;;;;;;;4.40;2.28;;;15.80;99.90;;;;;;5023084;28;20494;-62
2022/07/27 02:41:12;;;;;;;3.15;2.20;;;15.80;99.90;;;;;;5030757;28;20048;-62
2022/07/27 02:43:39;;;;;;;3.13;2.38;;;15.90;99.90;;;;;;5031145;28;20415;-62
2022/07/27 02:46:06;;;;;;;4.40;2.85;;;15.90;99.90;;;;;;5024327;28;20156;-62
2022/07/27 02:48:33;;;;;;;4.25;2.10;;;15.90;99.90;;;;;;5030962;28;20505;-62
2022/07/27 02:51:01;;;;;;;4.60;2.50;;;15.90;99.90;;;;;;5030691;28;20045;-62
2022/07/27 02:53:28;;;;;;;6.43;2.63;;;15.90;99.90;;;;;;5030469;28;20395;-62
2022/07/27 02:55:56;;;;;;;3.28;2.95;;;16.00;99.90;;;;;;5030464;28;20048;-62
2022/07/27 02:58:23;;;;;;;4.65;2.60;;;16.00;99.90;;;;;;5031115;28;20053;-62
2022/07/27 03:00:50;;;;;;;6.13;2.80;;;16.00;99.90;;;;;;5030401;28;20053;-62
2022/07/27 03:03:23;;;;;;;3.65;2.70;;;16.00;99.90;;;;;;5025403;28;20042;-62
2022/07/27 03:06:06;;;;;;;4.32;2.88;;;16.00;99.90;;;;;;5030223;28;20049;-62
2022/07/27 03:08:36;;;;;;;5.15;2.92;;;15.90;99.90;;;;;;5031031;28;20064;-62
2022/07/27 03:11:03;;;;;;;4.18;2.78;;;15.90;99.90;;;;;;5028942;28;20644;-62
2022/07/27 03:13:30;;;;;;;6.30;2.80;;;15.90;99.90;;;;;;5030520;28;20049;-62
2022/07/27 03:15:57;;;;;;;;;;;15.90;99.90;;;;;;5031242;28;20045;-62
2022/07/27 03:18:24;;;;;;;7.55;2.80;;;15.80;99.90;;;;;;5032553;28;19921;-62
2022/07/27 03:20:51;;;;;;;5.53;2.70;;;15.80;99.90;;;;;;5029232;28;20046;-62
2022/07/27 03:23:18;;;;;;;3.45;2.50;;;15.80;99.90;;;;;;5034196;28;20048;-62
2022/07/27 03:25:45;;;;;;;3.70;2.60;;;15.80;99.90;;;;;;5034225;28;20064;-62
2022/07/27 03:28:12;;;;;;;4.10;2.63;;;15.80;99.90;;;;;;5034367;28;20445;-62
2022/07/27 03:30:39;;;;;;;4.82;2.75;;;15.90;99.90;;;;;;5027730;28;20049;-62
2022/07/27 03:33:06;;;;;;;4.50;2.53;;;15.90;99.90;;;;;;5025744;28;20449;-62
2022/07/27 03:35:32;;;;;;;7.40;2.83;;;15.90;99.90;;;;;;5034108;28;20050;-62
2022/07/27 03:37:59;;;;;;;5.38;2.55;;;15.90;99.90;;;;;;5033553;28;20490;-62
2022/07/27 03:40:28;;;;;;;4.65;2.58;;;15.90;99.90;;;;;;5027924;28;20037;-62
2022/07/27 03:42:55;;;;;;;4.68;2.67;;;15.90;99.90;;;;;;5033565;28;20037;-62
2022/07/27 03:45:22;;;;;;;4.95;2.28;;;15.90;99.90;;;;;;5033932;28;20057;-62
2022/07/27 03:47:48;;;;;;;4.03;2.42;;;15.90;99.90;;;;;;5032241;28;20052;-62
2022/07/27 03:50:15;;;;;;;3.90;2.30;;;16.00;99.90;;;;;;5032902;28;20095;-62
2022/07/27 03:52:42;;;;;;;5.15;2.90;;;15.90;99.90;;;;;;5033292;28;20038;-62
2022/07/27 03:55:11;;;;;;;4.60;2.47;;;15.90;99.90;;;;;;5033771;28;20459;-62
2022/07/27 03:57:38;;;;;;;4.07;3.03;;;15.90;99.90;;;;;;5031755;28;20037;-62
2022/07/27 04:00:06;;;;;;;4.32;2.40;;;15.90;99.90;;;;;;5032763;28;20405;-62
2022/07/27 04:02:33;;;;;;;4.13;2.35;;;15.90;99.90;;;;;;5033575;28;20048;-63
2022/07/27 04:05:00;;;;;;;5.82;2.80;;;16.00;99.90;;;;;;5030232;28;20120;-62
2022/07/27 04:07:27;;;;;;;4.75;2.67;;;16.00;99.90;;;;;;5027893;28;20525;-62
2022/07/27 04:09:54;;;;;;;4.78;2.47;;;16.00;99.90;;;;;;5033067;28;20053;-62
2022/07/27 04:12:21;;;;;;;3.55;2.20;;;16.00;99.90;;;;;;5032609;28;20037;-63
2022/07/27 04:14:47;;;;;;;3.45;2.45;;;16.00;99.90;;;;;;5030535;28;20056;-63
2022/07/27 04:17:14;;;;;;;4.03;2.70;;;16.00;99.90;;;;;;5032554;28;20041;-63
2022/07/27 04:20:01;;;;;;;5.05;2.45;;;16.10;99.90;;;;;;5031012;28;20526;-63
2022/07/27 04:22:28;;;;;;;3.83;2.50;;;16.10;99.90;;;;;;5027475;28;20402;-63
2022/07/27 04:24:54;;;;;;;3.38;2.67;;;16.20;99.90;;;;;;5031490;28;20449;-62
2022/07/27 04:27:21;;;;;;;3.30;2.42;;;16.30;99.90;;;;;;5032597;28;20426;-63
2022/07/27 04:29:48;;;;;;;5.72;3.03;;;16.30;99.90;;;;;;5019199;28;20061;-63
2022/07/27 04:32:15;;;;;;;5.38;3.10;;;16.30;99.90;;;;;;5032651;28;20494;-63
2022/07/27 04:34:41;;;;;;;4.88;2.85;;;16.40;99.90;;;;;;5073528;22;20063;-59
2022/07/27 04:37:08;;;;;;;4.07;2.92;;;16.50;99.90;;;;;;5083585;28;20036;-59
2022/07/27 04:39:35;;;;;;;7.20;4.00;;;16.60;99.90;;;;;;5085483;28;20047;-60
2022/07/27 04:42:02;;;;;;;3.58;2.45;;;16.60;99.90;;;;;;5080349;28;20036;-59
2022/07/27 04:44:28;;;;;;;5.68;2.92;;;16.60;99.90;;;;;;5084081;28;20426;-59
2022/07/27 04:46:55;;;;;;;4.55;2.63;;;16.60;99.90;;;;;;5085524;28;20089;-61
2022/07/27 04:49:22;;;;;;;7.28;2.70;;;16.70;99.90;;;;;;5082180;28;20384;-60
2022/07/27 04:51:49;;;;;;;3.50;2.63;;;16.70;99.90;;;;;;5082801;28;20036;-61
2022/07/27 04:54:16;;;;;;;8.20;3.53;;;16.70;99.90;;;;;;5081745;28;20048;-61
2022/07/27 04:56:42;;;;;;;4.45;2.78;;;16.80;99.90;;;;;;5084479;28;20041;-61
2022/07/27 04:59:10;;;;;;;3.60;3.10;;;16.80;99.90;;;;;;5083430;28;20040;-61
2022/07/27 05:01:37;;;;;;;3.95;2.97;;;16.90;99.90;;;;;;5081157;28;20032;-58
2022/07/27 05:04:04;;;;;;;6.20;4.20;;;17.00;99.90;;;;;;5083632;28;20045;-61
2022/07/27 05:06:31;;;;;;;10.68;4.05;;;17.00;99.90;;;;;;5082312;28;20393;-61
2022/07/27 05:08:58;;;;;;;9.50;3.85;;;17.00;99.90;;;;;;5081884;28;20036;-61
2022/07/27 05:11:25;;;;;;;3.83;2.60;;;17.10;99.90;;;;;;5080635;28;20071;-60
2022/07/27 05:13:52;;;;;;;4.57;2.65;;;17.10;99.90;;;;;;5074285;28;20052;-61
2022/07/27 05:16:19;;;;;;;4.18;2.80;;;17.10;99.90;;;;;;5089951;28;20036;-61
2022/07/27 05:18:52;;;;;;;6.40;3.05;;;17.10;99.90;;;;;;5072182;28;20045;-61
2022/07/27 05:21:18;;;;;;;2.72;2.30;;;17.10;99.90;;;;;;5071375;28;20044;-61
2022/07/27 05:23:45;;;;;;;7.13;2.90;;;17.10;99.90;;;;;;5081325;28;20044;-61
2022/07/27 05:26:12;;;;;;;6.78;3.00;;;17.10;99.90;;;;;;5092058;28;20070;-61
2022/07/27 05:28:39;;;;;;;5.15;2.53;;;17.10;99.90;;;;;;5092223;28;20068;-61
2022/07/27 05:31:06;;;;;;;3.95;2.72;;;17.10;99.90;;;;;;5091079;28;20044;-60
2022/07/27 05:33:33;;;;;;;4.38;2.92;;;17.20;99.90;;;;;;5086995;28;20036;-60
2022/07/27 05:35:59;;;;;;;6.75;3.03;;;17.20;99.90;;;;;;5091876;28;20048;-60
2022/07/27 05:38:27;;;;;;;4.20;3.05;;;17.30;99.90;;;;;;5090815;28;20119;-60
2022/07/27 05:40:54;;;;;;;5.97;3.05;;;17.20;99.90;;;;;;5083844;28;20412;-60
2022/07/27 05:43:21;;;;;;;9.88;3.58;;;17.30;99.90;;;;;;5089625;28;20044;-60
2022/07/27 05:45:47;;;;;;;5.75;3.10;;;17.40;99.90;;;;;;5091980;28;20113;-60
2022/07/27 05:48:14;;;;;;;5.63;3.22;;;17.40;99.90;;;;;;5092000;28;20123;-61
2022/07/27 05:50:42;;;;;;;7.20;3.85;;;17.50;99.90;;;;;;5090934;28;20040;-60
2022/07/27 05:53:09;;;;;;;9.77;3.25;;;17.60;99.90;;;;;;5091674;28;20531;-60
2022/07/27 05:55:36;;;;;;;6.00;3.10;;;17.60;99.90;;;;;;5090627;28;20056;-60
2022/07/27 05:58:03;;;;;;;5.93;3.60;;;17.70;99.90;;;;;;5087791;28;20036;-60
2022/07/27 06:00:30;;;;;;;8.02;3.60;;;17.70;99.90;;;;;;5091185;28;20036;-60
2022/07/27 06:02:57;;;;;;;7.22;3.80;;;17.80;99.90;;;;;;5091753;28;20420;-60
2022/07/27 06:05:24;;;;;;;7.82;3.83;;;17.90;99.90;;;;;;5091316;28;20508;-61
2022/07/27 06:08:02;;;;;;;6.00;3.42;;;17.90;99.90;;;;;;5087965;28;20047;-61
2022/07/27 06:10:31;;;;;;;8.32;4.50;;;18.00;99.90;;;;;;5091082;28;20039;-60
2022/07/27 06:12:59;;;;;;;8.40;3.50;;;18.10;99.90;;;;;;5091441;28;20198;-59
2022/07/27 06:15:25;;;;;;;6.15;3.72;;;18.30;99.90;;;;;;5088926;28;20048;-60
2022/07/27 06:17:53;;;;;;;5.70;3.80;;;18.30;99.90;;;;;;5090980;28;20497;-60
2022/07/27 06:20:20;;;;;;;5.20;3.55;;;18.40;99.90;;;;;;5091131;28;20037;-60
2022/07/27 06:22:49;;;;;;;7.43;3.30;;;18.50;99.90;;;;;;5091456;28;20074;-60
2022/07/27 06:25:17;;;;;;;4.80;3.67;;;18.50;99.90;;;;;;5085055;28;20040;-61
2022/07/27 06:27:45;;;;;;;4.63;3.40;;;18.50;99.90;;;;;;5091259;28;20036;-60
2022/07/27 06:30:17;;;;;;;7.60;3.40;;;18.50;99.90;;;;;;5090557;28;20520;-60
2022/07/27 06:32:44;;;;;;;7.63;3.50;;;18.50;99.90;;;;;;5091468;28;20314;-59
2022/07/27 06:35:13;;;;;;;6.55;3.58;;;18.60;99.90;;;;;;5084254;28;20040;-60
2022/07/27 06:37:42;;;;;;;4.68;3.50;;;18.60;99.90;;;;;;5091497;28;20058;-61
2022/07/27 06:40:13;;;;;;;5.75;3.60;;;18.60;99.90;;;;;;5090654;28;20113;-60
2022/07/27 06:42:40;;;;;;;7.95;3.50;;;18.80;99.90;;;;;;5089778;28;20040;-60
2022/07/27 06:45:08;;;;;;;6.18;3.42;;;18.80;99.90;;;;;;5083063;28;20381;-61
2022/07/27 06:47:35;;;;;;;7.40;3.60;;;19.00;99.90;;;;;;5091241;28;20540;-60
2022/07/27 06:50:16;;;;;;;4.47;3.38;;;19.10;99.90;;;;;;5090753;28;20067;-60
2022/07/27 06:52:43;;;;;;;6.82;3.05;;;19.10;99.90;;;;;;5084012;28;20048;-60
2022/07/27 06:55:10;;;;;;;4.80;3.40;;;19.00;99.90;;;;;;5094881;28;20071;-60
2022/07/27 06:57:36;;;;;;;6.35;3.42;;;19.00;99.90;;;;;;5093572;28;20048;-60
2022/07/27 07:00:05;;;;;;;5.63;3.30;;;19.20;99.90;;;;;;5094644;28;20446;-60
2022/07/27 07:02:32;;;;;;;3.97;3.35;;;19.30;99.90;;;;;;5091611;28;20032;-60
2022/07/27 07:04:59;;;;;;;5.25;3.38;;;19.40;99.90;;;;;;5094706;28;20051;-60
2022/07/27 07:07:25;;;;;;;3.80;3.00;;;19.50;99.90;;;;;;5094836;28;20047;-60
2022/07/27 07:09:52;;;;;;;6.05;2.92;;;19.70;99.90;;;;;;5091770;28;20492;-60
2022/07/27 07:12:19;;;;;;;6.00;3.25;;;19.50;99.90;;;;;;5094649;28;20039;-59
2022/07/27 07:14:46;;;;;;;4.15;3.75;;;19.50;99.90;;;;;;5094658;28;20035;-60
2022/07/27 07:17:12;;;;;;;7.32;3.40;;;19.50;99.90;;;;;;5091246;28;20082;-61
2022/07/27 07:19:40;;;;;;;4.90;3.20;;;19.60;99.90;;;;;;5090531;28;20044;-60
2022/07/27 07:22:06;;;;;;;5.05;3.65;;;19.70;99.90;;;;;;5074299;28;20043;-61
2022/07/27 07:24:33;;;;;;;4.90;3.30;;;19.70;99.90;;;;;;5074695;28;20413;-60
2022/07/27 07:27:00;;;;;;;3.22;2.88;;;19.70;99.90;;;;;;5093380;28;20058;-60
2022/07/27 07:29:27;;;;;;;4.18;3.50;;;19.70;99.90;;;;;;5094462;28;20044;-60
2022/07/27 07:31:54;;;;;;;4.72;3.08;;;19.80;99.90;;;;;;5093955;28;20044;-60
2022/07/27 07:34:21;;;;;;;7.30;3.33;;;20.00;99.90;;;;;;5091077;28;20113;-59
2022/07/27 07:36:48;;;;;;;6.88;3.50;;;20.00;99.90;;;;;;5093938;28;20050;-60
2022/07/27 07:39:16;;;;;;;7.40;4.30;;;20.20;99.90;;;;;;5094187;28;20060;-60
2022/07/27 07:41:42;;;;;;;4.10;3.33;;;20.30;99.90;;;;;;5086385;28;20400;-60
2022/07/27 07:44:09;;;;;;;5.60;3.13;;;20.10;99.90;;;;;;5094064;28;20046;-60
2022/07/27 07:46:36;;;;;;;8.32;3.92;;;20.20;99.90;;;;;;5093805;28;20040;-61
2022/07/27 07:49:04;;;;;;;10.68;3.88;;;20.30;99.90;;;;;;5093491;28;20508;-60
2022/07/27 07:51:31;;;;;;;6.05;3.67;;;20.40;99.90;;;;;;5093358;28;20079;-60
2022/07/27 07:53:58;;;;;;;6.30;3.50;;;20.30;99.90;;;;;;5093879;28;20094;-60
2022/07/27 07:56:24;;;;;;;;;;;20.20;99.90;;;;;;5093611;28;20090;-60
2022/07/27 07:58:51;;;;;;;7.15;3.85;;;20.10;99.90;;;;;;5090388;28;20297;-60
2022/07/27 08:01:18;;;;;;;6.38;3.30;;;20.10;99.90;;;;;;5093298;28;20040;-60
2022/07/27 08:03:45;;;;;;;6.53;3.22;;;20.20;99.90;;;;;;5093560;28;20044;-60
2022/07/27 08:06:17;;;;;;;7.72;3.60;;;20.00;99.90;;;;;;5091617;28;20392;-60
2022/07/27 08:08:44;;;;;;;8.13;4.03;;;20.20;99.90;;;;;;5093730;28;20058;-60
2022/07/27 08:11:11;;;;;;;8.95;3.30;;;20.40;99.90;;;;;;5093252;28;20606;-60
2022/07/27 08:13:38;;;;;;;9.02;3.88;;;20.50;99.90;;;;;;5093248;28;20493;-60
2022/07/27 08:16:04;;;;;;;4.20;3.63;;;20.70;99.90;;;;;;5086099;28;20051;-60
2022/07/27 08:18:31;;;;;;;7.22;3.38;;;21.00;99.90;;;;;;5091996;28;20501;-61
2022/07/27 08:20:58;;;;;;;5.20;2.92;;;21.20;99.90;;;;;;5092900;28;20044;-60
2022/07/27 08:23:25;;;;;;;4.88;3.63;;;21.30;99.90;;;;;;5093193;28;20048;-60
2022/07/27 08:25:52;;;;;;;;;;;21.40;99.90;;;;;;5092963;28;20075;-60
2022/07/27 08:28:19;;;;;;;5.63;3.80;;;21.30;99.90;;;;;;5092931;28;19927;-60
2022/07/27 08:30:46;;;;;;;;;;;21.30;99.90;;;;;;5093685;28;20093;-60
2022/07/27 08:33:15;;;;;;;4.47;3.33;;;21.30;99.90;;;;;;5090952;28;19924;-60
2022/07/27 08:35:43;;;;;;;8.23;3.28;;;21.50;99.90;;;;;;5089694;28;20467;-60
2022/07/27 08:38:10;;;;;;;8.60;3.20;;;21.70;99.90;;;;;;5093009;28;20039;-60
2022/07/27 08:40:38;;;;;;;4.30;3.05;;;21.80;99.90;;;;;;5092411;28;20044;-61
2022/07/27 08:43:11;;;;;;;5.57;3.63;;;21.90;99.90;;;;;;5090293;28;20640;-60
2022/07/27 08:45:40;;;;;;;4.40;2.90;;;21.90;99.90;;;;;;5092606;28;20051;-60
2022/07/27 08:48:11;;;;;;;4.97;3.30;;;21.90;99.90;;;;;;5093123;28;20060;-60
2022/07/27 08:50:40;;;;;;;3.20;2.45;;;21.90;99.90;;;;;;5092369;28;20043;-60
2022/07/27 08:53:10;;;;;;;4.32;2.92;;;22.00;99.90;;;;;;5090749;28;20058;-60
2022/07/27 08:55:39;;;;;;;3.50;2.65;;;22.20;99.90;;;;;;5092516;28;20101;-60
2022/07/27 08:58:07;;;;;;;8.60;2.97;;;22.30;99.90;;;;;;5092571;28;20051;-60
2022/07/27 09:00:36;;;;;;;6.60;2.88;;;22.30;99.90;;;;;;5087063;28;20044;-60
2022/07/27 09:03:03;;;;;;;5.07;2.75;;;22.40;99.90;;;;;;5090976;28;20399;-60
2022/07/27 09:05:30;;;;;;;5.13;3.03;;;22.50;99.90;;;;;;5092361;28;20048;-60
2022/07/27 09:08:15;;;;;;;4.50;2.80;;;22.50;99.90;;;;;;5092483;28;20072;-60
2022/07/27 09:10:42;;;;;;;5.00;3.08;;;22.50;99.90;;;;;;5089728;28;20047;-60
2022/07/27 09:13:21;;;;;;;3.85;3.10;;;22.60;99.90;;;;;;5092243;28;20051;-60
2022/07/27 09:15:51;;;;;;;3.38;2.95;;;22.50;99.90;;;;;;5090575;28;20071;-60
2022/07/27 09:18:38;;;;;;;4.18;2.67;;;22.60;99.90;;;;;;5087759;28;20482;-60
2022/07/27 09:21:20;;;;;;;6.45;3.00;;;22.80;99.90;;;;;;5083142;28;20462;-60
2022/07/27 09:23:52;;;;;;;5.32;2.72;;;22.90;99.90;;;;;;5092172;28;20046;-61
2022/07/27 09:26:27;;;;;;;7.57;3.65;;;22.80;99.90;;;;;;5092110;28;20048;-61
2022/07/27 09:29:02;;;;;;;5.47;3.80;;;22.60;99.90;;;;;;5084194;28;20044;-61
2022/07/27 09:31:30;;;;;;;4.45;3.42;;;22.30;99.90;;;;;;5091387;28;20048;-61
2022/07/27 09:34:01;;;;;;;4.35;3.13;;;22.30;99.90;;;;;;5091583;28;20032;-61
2022/07/27 09:36:29;;;;;;;3.88;3.00;;;22.20;99.90;;;;;;5091365;28;20471;-61
2022/07/27 09:39:04;;;;;;;3.63;3.03;;;22.30;99.90;;;;;;5090555;28;20032;-61
2022/07/27 09:41:43;;;;;;;5.13;3.70;;;22.20;99.90;;;;;;5091604;28;20062;-60
2022/07/27 09:44:12;;;;;;;4.40;3.40;;;22.20;99.90;;;;;;5088334;28;20458;-61
2022/07/27 09:46:57;;;;;;;8.27;3.28;;;22.20;99.90;;;;;;5090662;28;20048;-61
2022/07/27 09:49:27;;;;;;;6.30;3.45;;;22.30;99.90;;;;;;5090545;28;20040;-61
2022/07/27 09:51:58;;;;;;;5.95;4.03;;;22.40;99.90;;;;;;5090642;28;20554;-60
2022/07/27 09:54:40;;;;;;;6.55;3.58;;;22.50;99.90;;;;;;5086196;28;20420;-61
2022/07/27 09:57:08;;;;;;;9.40;4.60;;;22.50;99.90;;;;;;5071411;28;20308;-60
2022/07/27 09:59:34;;;;;;;7.43;4.60;;;22.50;99.90;;;;;;5071397;28;20405;-61
2022/07/27 10:02:01;;;;;;;9.00;4.13;;;22.60;99.90;;;;;;5074444;28;20043;-61
2022/07/27 10:04:31;;;;;;;6.57;4.13;;;22.70;99.90;;;;;;5091379;28;20048;-61
2022/07/27 10:07:00;;;;;;;7.75;4.07;;;22.80;99.90;;;;;;5091797;28;20130;-61
2022/07/27 10:09:32;;;;;;;9.27;3.80;;;22.90;99.90;;;;;;5087080;28;20040;-61
2022/07/27 10:12:00;;;;;;;6.97;3.78;;;22.90;99.90;;;;;;5089781;28;20044;-61
2022/07/27 10:14:27;;;;;;;7.15;3.90;;;22.90;99.90;;;;;;5091412;28;20044;-61
2022/07/27 10:16:55;;;;;;;6.60;3.85;;;23.00;99.90;;;;;;5091696;28;20047;-61
2022/07/27 10:19:44;;;;;;;6.13;3.10;;;23.20;99.90;;;;;;5087911;28;20036;-61
2022/07/27 10:22:10;;;;;;;6.95;3.50;;;23.40;99.90;;;;;;5083375;28;20036;-61
2022/07/27 10:24:37;;;;;;;5.93;3.85;;;23.50;99.90;;;;;;5091220;28;20413;-59
2022/07/27 10:27:19;;;;;;;;;;;23.50;99.90;;;;;;5091780;28;20055;-60
2022/07/27 10:29:49;;;;;;;5.72;3.53;;;23.40;99.90;;;;;;5094698;28;20407;-61
2022/07/27 10:32:30;;;;;;;8.68;4.13;;;23.30;99.90;;;;;;5095162;28;20065;-61
2022/07/27 10:35:33;;;;;;;6.15;3.13;;;23.30;99.90;;;;;;5117378;22;20039;-61
2022/07/27 10:41:34;;;;;;;5.10;3.25;;;23.00;99.90;;;;;;5114592;27;20042;-61
2022/07/27 10:44:13;;;;;;;6.53;3.15;;;23.00;99.90;;;;;;5115547;28;20043;-61
2022/07/27 10:46:43;;;;;;;9.65;3.78;;;22.90;99.90;;;;;;5108915;27;20078;-61
2022/07/27 10:49:21;;;;;;;8.88;3.08;;;22.90;99.90;;;;;;5102479;28;20127;-61
2022/07/27 10:51:49;;;;;;;4.95;3.08;;;23.00;99.90;;;;;;5112616;28;20488;-61
2022/07/27 10:54:31;;;;;;;3.47;2.60;;;23.10;99.90;;;;;;5115163;27;20039;-61
2022/07/27 10:56:59;;;;;;;2.53;2.25;;;23.30;99.90;;;;;;5106365;28;20062;-61
2022/07/27 10:59:38;;;;;;;7.68;3.20;;;23.50;99.90;;;;;;5115376;28;20040;-61
2022/07/27 11:02:40;;;;;;;5.40;2.55;;;23.70;99.90;;;;;;5115253;27;20074;-61
2022/07/27 11:05:10;;;;;;;7.40;2.88;;;23.80;99.90;;;;;;5093193;28;20416;-64
2022/07/27 11:07:57;;;;;;;5.57;2.38;;;24.00;99.90;;;;;;5095117;28;20047;-61
2022/07/27 11:10:46;;;;;;;3.47;2.45;;;24.00;99.90;;;;;;5095566;27;20090;-61
2022/07/27 11:13:13;;;;;;;4.93;2.60;;;23.80;99.90;;;;;;5106474;28;20123;-61
2022/07/27 11:15:51;;;;;;;3.53;2.70;;;23.80;99.90;;;;;;5115152;28;20050;-64
2022/07/27 11:18:30;;;;;;;5.07;2.40;;;23.70;99.90;;;;;;5115476;28;20118;-63
2022/07/27 11:21:17;;;;;;;2.70;2.38;;;23.50;99.90;;;;;;5108779;28;20071;-63
2022/07/27 11:24:17;;;;;;;5.55;2.20;;;23.40;99.90;;;;;;5112653;28;20050;-63
2022/07/27 11:26:48;;;;;;;2.75;2.00;;;23.20;99.90;;;;;;5114944;28;20035;-63
2022/07/27 11:29:17;;;;;;;3.92;2.50;;;23.30;99.90;;;;;;5114645;28;20488;-63
2022/07/27 11:31:46;;;;;;;7.25;2.40;;;23.40;99.90;;;;;;5102925;28;20110;-63
2022/07/27 11:34:27;;;;;;;4.43;2.60;;;23.40;99.90;;;;;;5114264;28;20442;-63
2022/07/27 11:36:55;;;;;;;2.92;2.42;;;23.40;99.90;;;;;;5114636;28;20051;-63
2022/07/27 11:39:25;;;;;;;4.32;2.40;;;23.50;99.90;;;;;;5114064;27;20039;-63
2022/07/27 11:42:13;;;;;;;10.50;2.20;;;23.70;99.90;;;;;;5102177;28;20039;-63
2022/07/27 11:44:49;;;;;;;2.75;2.00;;;23.80;99.90;;;;;;5094054;28;20439;-63
2022/07/27 11:47:18;;;;;;;4.88;2.15;;;24.00;99.90;;;;;;5094022;28;20078;-63
2022/07/27 11:49:45;;;;;;;3.72;1.90;;;24.20;99.90;;;;;;5102992;28;20529;-63
2022/07/27 11:52:16;;;;;;;2.05;1.65;;;24.40;99.90;;;;;;5114045;28;20116;-63
2022/07/27 11:54:50;;;;;;;6.63;2.08;;;24.60;99.90;;;;;;5114411;28;20036;-63
2022/07/27 11:57:20;;;;;;;4.15;2.10;;;24.80;99.90;;;;;;5114287;27;20059;-63
2022/07/27 11:59:47;;;;;;;2.72;1.80;;;24.90;99.90;;;;;;5105574;28;20051;-63
2022/07/27 12:02:18;;;;;;;6.50;1.98;;;24.60;99.90;;;;;;5113642;28;20052;-63
2022/07/27 12:04:47;;;;;;;2.45;2.03;;;24.60;99.90;;;;;;5114003;28;20051;-63
2022/07/27 12:07:20;;;;;;;3.38;1.52;;;24.80;99.90;;;;;;5114280;27;20511;-63
2022/07/27 12:09:53;;;;;;;8.48;3.00;;;24.70;99.90;;;;;;5105134;28;20127;-63
2022/07/27 12:12:22;;;;;;;3.03;1.73;;;24.40;99.90;;;;;;5114006;28;20047;-63
2022/07/27 12:14:49;;;;;;;6.82;2.72;;;24.00;99.90;;;;;;5113947;28;20051;-63
2022/07/27 12:17:18;;;;;;;2.70;2.15;;;23.90;99.90;;;;;;5108834;27;20057;-63
2022/07/27 12:19:55;;;;;;;2.60;2.22;;;23.80;99.90;;;;;;5111044;28;20054;-63
2022/07/27 12:22:23;;;;;;;4.25;2.60;;;24.00;99.90;;;;;;5113685;28;20047;-63
2022/07/27 12:24:50;;;;;;;3.53;2.30;;;24.40;99.90;;;;;;5113553;27;20511;-63
2022/07/27 12:27:18;;;;;;;;;;;24.20;99.90;;;;;;5108834;28;20040;-63
2022/07/27 12:30:02;;;;;;;3.80;2.33;;;23.90;99.90;;;;;;5110501;28;19927;-63
2022/07/27 12:32:31;;;;;;;3.13;2.45;;;24.00;99.90;;;;;;5113529;28;20046;-63
2022/07/27 12:34:59;;;;;;;4.97;2.05;;;24.50;99.90;;;;;;5113239;28;20040;-63
2022/07/27 12:37:31;;;;;;;4.03;2.28;;;24.80;99.90;;;;;;5104864;28;20039;-63
2022/07/27 12:39:58;;;;;;;4.20;2.08;;;25.00;99.90;;;;;;5112910;28;20040;-63
2022/07/27 12:42:33;;;;;;;4.68;2.03;;;25.20;99.90;;;;;;5113213;28;20043;-63
2022/07/27 12:45:17;;;;;;;9.00;2.28;;;25.10;99.90;;;;;;5111048;27;20048;-62
2022/07/27 12:47:44;;;;;;;10.77;2.08;;;25.20;99.90;;;;;;5127629;27;20074;-63
2022/07/27 12:50:12;;;;;;;4.15;2.28;;;25.70;99.90;;;;;;5132558;27;20046;-63
2022/07/27 12:52:49;;;;;;;3.47;2.20;;;25.70;99.90;;;;;;5129516;27;20039;-63
2022/07/27 12:55:17;;;;;;;4.18;2.08;;;25.60;99.90;;;;;;5101024;28;20036;-63
2022/07/27 12:57:44;;;;;;;8.68;2.50;;;26.30;99.90;;;;;;5092498;28;20051;-63
2022/07/27 13:00:24;;;;;;;7.05;2.20;;;26.70;99.90;;;;;;5092306;28;20079;-63
2022/07/27 13:02:59;;;;;;;3.15;2.20;;;26.30;99.90;;;;;;5102203;27;20051;-63
2022/07/27 13:05:25;;;;;;;4.85;2.08;;;26.10;99.90;;;;;;5107185;28;20122;-63
2022/07/27 13:07:52;;;;;;;2.60;2.10;;;26.00;99.90;;;;;;5112880;28;20054;-63
2022/07/27 13:10:19;;;;;;;;;;;26.00;99.70;;;;;;5112709;28;20062;-63